Time;durP1;ratioP1;P1;durP2;ratioP2;P2;SDS_P1;SDS_P2;PMS_P1;PMS_P2;Temp;Humidity;BMP_temperature;BMP_pressure;BME280_temperature;BME280_humidity;BME280_pressure;Samples;Min_cycle;Max_cycle;Signal;HPM_P1;HPM_P2
2021/07/05 00:01:53;;;;;;;11.80;10.70;;;;;;;19.26;83.71;99591.87;2847638;83;21009;-68
2021/07/05 00:05:55;;;;;;;13.78;11.35;;;;;;;19.35;83.15;99590.34;2847497;83;22239;-66
2021/07/05 00:09:56;;;;;;;14.30;11.35;;;;;;;19.37;83.08;99593.66;2847619;83;20998;-66
2021/07/05 00:13:59;;;;;;;13.38;11.15;;;;;;;19.33;82.54;99591.05;2847343;83;21081;-66
2021/07/05 00:18:05;;;;;;;12.80;9.65;;;;;;;19.31;81.77;99595.82;2847468;83;21074;-67
2021/07/05 00:22:09;;;;;;;12.13;10.78;;;;;;;19.28;81.69;99598.39;2859656;83;20999;-66
2021/07/05 00:26:13;;;;;;;11.78;10.55;;;;;;;19.31;81.44;99612.00;2859318;83;21026;-69
2021/07/05 00:30:18;;;;;;;10.25;8.95;;;;;;;19.25;81.68;99609.05;2811336;84;21026;-69
2021/07/05 00:34:23;;;;;;;12.45;10.78;;;;;;;19.21;81.34;99605.63;2859683;83;21606;-68
2021/07/05 00:38:26;;;;;;;10.05;9.00;;;;;;;19.14;81.42;99594.80;2811272;84;21109;-65
2021/07/05 00:42:27;;;;;;;13.22;11.38;;;;;;;19.11;81.39;99596.55;2859556;83;21142;-66
2021/07/05 00:46:30;;;;;;;14.47;10.55;;;;;;;19.09;81.79;99598.08;2811493;84;21081;-69
2021/07/05 00:50:35;;;;;;;17.30;11.25;;;;;;;19.08;80.86;99595.61;2811327;84;21010;-68
2021/07/05 00:54:39;;;;;;;21.62;11.12;;;;;;;18.95;80.68;99590.91;2847564;83;21502;-68
2021/07/05 00:58:42;;;;;;;12.98;10.90;;;;;;;18.73;80.91;99584.78;2835351;83;21071;-66
2021/07/05 01:02:45;;;;;;;15.28;8.40;;;;;;;18.59;81.53;99591.94;2810667;84;21097;-68
2021/07/05 01:06:47;;;;;;;12.65;10.80;;;;;;;18.39;80.96;99593.42;2814304;84;21027;-67
2021/07/05 01:10:48;;;;;;;14.20;10.43;;;;;;;18.32;81.84;99592.55;2824096;84;21640;-68
2021/07/05 01:14:53;;;;;;;17.15;12.07;;;;;;;18.24;81.68;99589.97;2848159;83;21036;-69
2021/07/05 01:19:00;;;;;;;14.83;11.53;;;;;;;18.27;82.02;99589.08;2848878;83;21009;-66
2021/07/05 01:23:08;;;;;;;20.82;11.83;;;;;;;18.26;82.30;99594.64;2833650;83;20995;-66
2021/07/05 01:27:11;;;;;;;18.30;12.82;;;;;;;18.23;82.59;99592.34;2839626;83;21050;-69
2021/07/05 01:31:15;;;;;;;14.00;12.05;;;;;;;18.21;82.09;99586.32;2798812;84;21054;-67
2021/07/05 01:35:21;;;;;;;15.18;12.20;;;;;;;18.21;82.32;99583.63;2798735;85;21090;-70
2021/07/05 01:39:25;;;;;;;14.85;11.38;;;;;;;18.04;82.16;99584.41;2798862;85;21022;-67
2021/07/05 01:43:28;;;;;;;19.00;9.65;;;;;;;18.03;82.82;99597.02;2798662;85;21022;-67
2021/07/05 01:47:31;;;;;;;15.08;10.58;;;;;;;18.02;82.79;99589.16;2798306;85;21163;-67
2021/07/05 01:51:34;;;;;;;16.55;11.73;;;;;;;17.94;83.39;99592.24;2799077;85;21073;-66
2021/07/05 01:55:36;;;;;;;13.50;10.70;;;;;;;17.67;83.39;99593.81;2799007;85;21054;-70
2021/07/05 01:59:42;;;;;;;25.30;12.45;;;;;;;17.59;83.94;99591.24;2798951;85;20999;-67
2021/07/05 02:03:48;;;;;;;17.85;10.88;;;;;;;17.55;84.64;99590.28;2798972;84;21022;-70
2021/07/05 02:07:53;;;;;;;14.95;11.20;;;;;;;17.64;83.96;99595.53;2781306;85;21023;-68
2021/07/05 02:11:58;;;;;;;22.45;11.70;;;;;;;17.69;84.43;99592.61;2798010;85;21066;-67
2021/07/05 02:16:04;;;;;;;25.45;12.68;;;;;;;17.63;83.47;99585.80;2779550;85;21026;-69
2021/07/05 02:20:15;;;;;;;20.23;11.88;;;;;;;17.41;82.99;99593.83;2797267;85;21035;-69
2021/07/05 02:24:17;;;;;;;13.95;11.30;;;;;;;17.20;82.34;99591.92;2796546;84;22019;-68
2021/07/05 02:28:26;;;;;;;19.52;13.48;;;;;;;17.01;84.74;99584.73;2832082;83;21043;-68
2021/07/05 02:32:28;;;;;;;16.20;11.10;;;;;;;16.96;85.23;99578.54;2859284;83;21016;-70
2021/07/05 02:36:34;;;;;;;12.47;11.25;;;;;;;17.01;85.60;99586.08;2859185;83;21028;-69
2021/07/05 02:40:43;;;;;;;20.32;11.90;;;;;;;17.02;86.46;99590.44;2859281;83;21077;-69
2021/07/05 02:44:44;;;;;;;18.15;11.55;;;;;;;17.02;86.37;99588.24;2859399;83;21044;-68
2021/07/05 02:48:51;;;;;;;14.87;10.55;;;;;;;17.05;86.71;99594.09;2859318;83;21016;-67
2021/07/05 02:52:55;;;;;;;10.48;9.35;;;;;;;17.02;86.88;99592.27;2858432;82;21020;-68
2021/07/05 02:56:57;;;;;;;12.63;10.30;;;;;;;17.07;86.55;99602.80;2859008;83;21024;-69
2021/07/05 03:01:00;;;;;;;14.10;12.05;;;;;;;17.06;86.29;99604.31;2859150;83;21043;-68
2021/07/05 03:05:07;;;;;;;15.32;9.83;;;;;;;17.05;87.20;99603.98;2859170;83;21044;-70
2021/07/05 03:09:09;;;;;;;18.10;11.65;;;;;;;17.06;86.94;99602.97;2858979;83;21052;-68
2021/07/05 03:13:14;;;;;;;13.93;9.45;;;;;;;17.13;86.69;99607.42;2858684;83;21051;-70
2021/07/05 03:17:17;;;;;;;17.07;10.65;;;;;;;17.28;86.03;99615.47;2859006;83;21490;-71
2021/07/05 03:21:19;;;;;;;19.60;10.72;;;;;;;17.39;85.16;99616.88;2859198;83;21088;-72
2021/07/05 03:25:23;;;;;;;25.82;9.65;;;;;;;17.41;84.45;99623.39;2859375;83;21004;-72
2021/07/05 03:29:25;;;;;;;25.72;10.93;;;;;;;17.36;83.35;99619.91;2859473;83;21051;-73
2021/07/05 03:33:27;;;;;;;29.92;10.50;;;;;;;17.39;84.56;99614.19;2859585;83;21052;-72
2021/07/05 03:37:28;;;;;;;22.65;10.53;;;;;;;17.47;83.83;99613.75;2859688;83;21040;-74
2021/07/05 03:41:31;;;;;;;23.95;11.65;;;;;;;17.54;83.70;99615.50;2858743;83;21060;-72
2021/07/05 03:45:36;;;;;;;36.38;12.70;;;;;;;17.61;84.32;99609.36;2859572;82;21020;-73
2021/07/05 03:49:37;;;;;;;29.02;12.73;;;;;;;17.65;83.75;99611.50;2859578;83;21005;-71
2021/07/05 03:53:39;;;;;;;20.70;12.80;;;;;;;17.67;84.12;99605.91;2859377;82;21059;-73
2021/07/05 03:57:41;;;;;;;34.05;14.68;;;;;;;17.81;84.35;99609.08;2859401;82;20996;-72
2021/07/05 04:01:43;;;;;;;65.10;18.60;;;;;;;17.92;84.30;99616.34;2859315;83;21024;-70
2021/07/05 04:05:47;;;;;;;40.67;13.80;;;;;;;18.09;84.81;99604.35;2858631;82;21059;-70
2021/07/05 04:09:49;;;;;;;44.25;13.85;;;;;;;18.30;85.23;99612.09;2859471;83;21044;-69
2021/07/05 04:13:51;;;;;;;40.98;15.60;;;;;;;18.49;85.88;99615.16;2859277;83;21055;-68
2021/07/05 04:17:53;;;;;;;37.40;16.77;;;;;;;18.78;87.00;99611.95;2859405;82;21052;-69
2021/07/05 04:21:54;;;;;;;41.63;15.08;;;;;;;19.20;89.52;99619.60;2859468;82;21545;-69
2021/07/05 04:25:56;;;;;;;23.65;15.00;;;;;;;20.06;88.32;99608.03;2859734;83;20992;-69
2021/07/05 04:29:58;;;;;;;15.88;12.40;;;;;;;21.17;86.58;99608.92;2808434;83;21058;-69
2021/07/05 04:33:59;;;;;;;20.57;16.02;;;;;;;22.38;81.15;99611.02;2798412;84;21042;-70
2021/07/05 04:38:02;;;;;;;25.25;16.02;;;;;;;23.47;76.95;99599.48;2798739;85;21011;-72
2021/07/05 04:42:04;;;;;;;23.60;14.95;;;;;;;24.39;72.72;99597.57;2798762;85;21051;-68
2021/07/05 04:46:07;;;;;;;22.58;14.98;;;;;;;25.18;71.24;99600.17;2798205;85;20995;-67
2021/07/05 04:50:12;;;;;;;19.57;13.68;;;;;;;25.90;68.47;99607.59;2799062;85;21023;-69
2021/07/05 04:54:15;;;;;;;21.30;13.72;;;;;;;26.71;67.36;99604.31;2799058;85;20983;-68
2021/07/05 04:58:17;;;;;;;22.40;14.30;;;;;;;27.54;64.87;99595.94;2798913;85;21027;-68
2021/07/05 05:02:24;;;;;;;21.90;14.25;;;;;;;28.20;61.94;99594.97;2799273;85;21039;-68
2021/07/05 05:06:26;;;;;;;19.92;13.28;;;;;;;28.76;59.76;99589.63;2799759;85;21038;-70
2021/07/05 05:10:28;;;;;;;20.40;11.57;;;;;;;29.26;58.21;99583.34;2799899;84;21034;-68
2021/07/05 05:14:30;;;;;;;15.95;9.95;;;;;;;29.68;56.76;99572.01;2799653;85;21058;-70
2021/07/05 05:18:32;;;;;;;22.10;11.80;;;;;;;30.06;55.56;99585.51;2800324;85;21062;-69
2021/07/05 05:22:33;;;;;;;15.63;10.82;;;;;;;30.39;54.46;99580.58;2800544;85;21086;-70
2021/07/05 05:26:37;;;;;;;19.65;10.50;;;;;;;30.23;52.85;99584.42;2800133;85;23709;-70
2021/07/05 05:30:39;;;;;;;14.03;10.23;;;;;;;29.38;54.54;99579.00;2812319;83;21002;-69
2021/07/05 05:34:41;;;;;;;13.62;10.03;;;;;;;28.93;55.48;99578.53;2807794;84;21000;-69
2021/07/05 05:38:47;;;;;;;12.07;10.70;;;;;;;29.30;54.89;99563.10;2819788;84;21023;-67
2021/07/05 05:42:47;;;;;;;11.53;9.50;;;;;;;29.83;54.50;99570.36;2832179;83;21009;-69
2021/07/05 05:46:48;;;;;;;15.25;10.13;;;;;;;30.38;53.81;99578.09;2792756;83;21056;-70
2021/07/05 05:50:50;;;;;;;16.05;9.05;;;;;;;30.77;52.50;99583.84;2845111;83;21028;-67
2021/07/05 05:54:52;;;;;;;11.80;8.68;;;;;;;31.06;51.75;99579.07;2837318;83;20993;-69
2021/07/05 05:59:00;;;;;;;9.65;8.65;;;;;;;31.13;50.76;99585.64;2834222;83;21044;-69
2021/07/05 06:02:58;;;;;;;14.63;8.43;;;;;;;31.03;49.30;99559.58;2826542;83;21471;-69
2021/07/05 06:07:00;;;;;;;12.88;9.15;;;;;;;31.13;50.67;99586.18;2809923;83;21052;-69
2021/07/05 06:11:02;;;;;;;17.25;10.93;;;;;;;30.54;51.11;99592.08;2837914;83;21108;-70
2021/07/05 06:15:07;;;;;;;14.55;8.78;;;;;;;29.66;53.40;99597.45;2835923;83;21016;-69
2021/07/05 06:19:08;;;;;;;11.03;8.30;;;;;;;29.14;54.07;99580.83;2803711;84;21032;-68
2021/07/05 06:23:19;;;;;;;12.60;8.18;;;;;;;29.13;54.94;99591.51;2828884;83;21541;-68
2021/07/05 06:27:18;;;;;;;17.20;9.15;;;;;;;28.90;54.52;99597.70;2847458;83;20996;-71
2021/07/05 06:31:19;;;;;;;12.53;8.00;;;;;;;28.42;56.55;99602.25;2798096;84;21019;-70
2021/07/05 06:35:21;;;;;;;16.00;8.58;;;;;;;28.45;58.38;99609.92;2816340;84;20990;-68
2021/07/05 06:39:23;;;;;;;10.75;8.13;;;;;;;28.51;58.24;99613.81;2816308;84;21050;-71
2021/07/05 06:43:26;;;;;;;12.53;9.40;;;;;;;28.35;58.09;99614.77;2803925;84;21029;-68
2021/07/05 06:47:28;;;;;;;11.33;8.30;;;;;;;28.36;58.57;99609.05;2811103;84;21035;-68
2021/07/05 06:51:29;;;;;;;10.20;8.75;;;;;;;28.39;59.17;99612.34;2803081;84;21003;-67
2021/07/05 06:55:32;;;;;;;9.88;7.85;;;;;;;28.39;58.79;99619.99;2756835;86;20980;-66
2021/07/05 06:59:34;;;;;;;11.10;8.93;;;;;;;28.19;58.59;99614.63;2761734;86;21031;-66
2021/07/05 07:03:36;;;;;;;17.42;8.35;;;;;;;27.86;59.15;99604.72;2802915;85;21045;-66
2021/07/05 07:07:40;;;;;;;11.22;9.03;;;;;;;27.57;60.25;99606.34;2772952;86;21007;-66
2021/07/05 07:11:41;;;;;;;15.75;8.75;;;;;;;27.59;60.26;99616.47;2809457;84;21096;-66
2021/07/05 07:15:52;;;;;;;12.68;9.00;;;;;;;27.90;61.59;99614.05;2754856;86;21082;-66
2021/07/05 07:19:53;;;;;;;14.05;8.38;;;;;;;28.38;58.78;99606.59;2805880;84;21076;-69
2021/07/05 07:23:55;;;;;;;12.23;8.40;;;;;;;28.81;58.64;99596.53;2773213;86;21015;-68
2021/07/05 07:27:57;;;;;;;9.85;7.33;;;;;;;28.78;57.27;99598.40;2807191;83;20996;-68
2021/07/05 07:31:59;;;;;;;7.78;6.92;;;;;;;28.82;57.19;99594.07;2816461;83;21034;-66
2021/07/05 07:36:02;;;;;;;11.80;7.85;;;;;;;29.23;56.19;99586.62;2816625;84;21066;-67
2021/07/05 07:44:17;;;;;;;7.37;6.55;;;;;;;29.81;55.72;99581.62;2815344;84;21057;-66
2021/07/05 07:48:19;;;;;;;10.85;7.65;;;;;;;30.14;53.74;99584.14;2816582;84;21058;-67
2021/07/05 07:52:22;;;;;;;17.30;6.08;;;;;;;30.24;53.89;99574.53;2816843;83;20991;-66
2021/07/05 07:56:24;;;;;;;8.80;6.00;;;;;;;30.33;52.91;99571.52;2816587;84;21061;-68
2021/07/05 08:00:29;;;;;;;14.60;6.65;;;;;;;30.20;53.16;99583.88;2817050;84;21065;-68
2021/07/05 08:04:30;;;;;;;12.70;6.40;;;;;;;29.96;53.79;99587.66;2816563;84;21029;-67
2021/07/05 08:08:31;;;;;;;8.73;5.95;;;;;;;29.55;55.08;99580.17;2816660;84;21028;-67
2021/07/05 08:12:33;;;;;;;59.88;12.60;;;;;;;29.34;54.83;99577.90;2816341;84;21073;-68
2021/07/05 08:16:35;;;;;;;10.32;7.25;;;;;;;29.19;53.56;99574.00;2815573;83;20990;-66
2021/07/05 08:20:37;;;;;;;8.53;5.60;;;;;;;29.29;51.62;99587.47;2816276;83;21065;-68
2021/07/05 08:24:39;;;;;;;7.80;6.92;;;;;;;29.54;52.32;99588.67;2816429;84;21476;-67
2021/07/05 08:28:42;;;;;;;6.58;5.92;;;;;;;29.52;52.43;99585.39;2817679;82;21017;-67
2021/07/05 08:32:43;;;;;;;8.88;6.10;;;;;;;29.36;51.03;99581.19;2823507;83;21022;-66
2021/07/05 08:36:45;;;;;;;7.50;6.28;;;;;;;29.04;51.90;99582.98;2823254;84;21013;-68
2021/07/05 08:40:47;;;;;;;8.18;6.65;;;;;;;28.83;50.60;99588.06;2823770;83;21017;-68
2021/07/05 08:44:49;;;;;;;7.03;5.58;;;;;;;28.78;51.22;99588.27;2777478;84;21064;-68
2021/07/05 08:48:52;;;;;;;8.45;6.37;;;;;;;29.06;51.44;99585.44;2823217;84;21009;-69
2021/07/05 08:52:57;;;;;;;6.33;5.73;;;;;;;29.04;52.73;99581.61;2823369;83;21026;-68
2021/07/05 08:56:59;;;;;;;19.03;6.90;;;;;;;28.99;51.85;99587.06;2823406;83;21025;-66
2021/07/05 09:01:02;;;;;;;10.15;6.60;;;;;;;29.01;51.47;99586.78;2823655;83;21006;-68
2021/07/05 09:05:06;;;;;;;16.73;6.30;;;;;;;28.99;51.15;99589.80;2823465;84;21407;-68
2021/07/05 09:09:10;;;;;;;7.33;5.97;;;;;;;29.09;52.94;99589.03;2823755;84;21009;-68
2021/07/05 09:13:17;;;;;;;9.35;5.35;;;;;;;29.00;51.99;99587.34;2823336;83;21105;-67
2021/07/05 09:17:18;;;;;;;7.12;4.78;;;;;;;28.84;51.48;99589.16;2823288;84;21025;-66
2021/07/05 09:21:30;;;;;;;6.55;5.28;;;;;;;28.93;51.80;99588.11;2823493;84;21006;-68
2021/07/05 09:25:53;;;;;;;6.05;5.45;;;;;;;28.97;51.32;99589.78;2823253;84;21089;-68
2021/07/05 09:30:00;;;;;;;8.15;5.80;;;;;;;29.10;51.25;99581.09;2823643;84;21089;-68
2021/07/05 09:34:04;;;;;;;6.83;6.05;;;;;;;29.43;50.55;99574.94;2822739;84;21518;-68
2021/07/05 09:38:07;;;;;;;5.97;5.30;;;;;;;29.49;50.32;99573.87;2823299;83;21029;-69
2021/07/05 09:42:13;;;;;;;11.28;5.55;;;;;;;29.68;49.48;99576.12;2823937;83;20996;-65
2021/07/05 09:46:17;;;;;;;7.15;5.08;;;;;;;30.18;48.93;99577.84;2802696;83;21034;-64
2021/07/05 09:50:21;;;;;;;;;;;;;;;30.18;48.93;99577.84;2826906;83;20986;-64
2021/07/05 09:54:26;;;;;;;5.92;5.37;;;;;;;30.01;49.57;99579.43;2808121;83;20395;-63
2021/07/05 09:58:32;;;;;;;7.45;6.12;;;;;;;29.67;49.48;99575.00;2805641;84;21012;-65
2021/07/05 10:02:38;;;;;;;7.35;5.83;;;;;;;29.55;53.07;99580.73;2816741;83;21038;-66
2021/07/05 10:06:47;;;;;;;88.78;19.67;;;;;;;29.66;54.35;99586.50;2799440;84;21057;-66
2021/07/05 10:10:54;;;;;;;7.12;5.70;;;;;;;29.68;52.51;99561.05;2810604;84;20935;-65
2021/07/05 10:15:11;;;;;;;6.20;5.42;;;;;;;29.67;52.19;99591.45;2802056;84;21476;-65
2021/07/05 10:19:18;;;;;;;7.12;5.33;;;;;;;29.67;52.19;99591.45;2801518;85;20992;-65
2021/07/05 10:23:17;;;;;;;5.75;5.25;;;;;;;29.56;52.87;99589.23;2800996;84;21056;-65
2021/07/05 10:27:20;;;;;;;33.58;8.38;;;;;;;29.14;52.88;99601.38;2801584;85;20977;-68
2021/07/05 10:31:22;;;;;;;7.17;5.47;;;;;;;29.14;52.88;99601.38;2798623;84;21080;-65
2021/07/05 10:35:45;;;;;;;6.80;6.15;;;;;;;28.88;54.08;99597.67;2798182;85;21065;-65
2021/07/05 10:39:49;;;;;;;8.38;6.80;;;;;;;28.68;55.22;99612.00;2794114;83;21001;-65
2021/07/05 10:44:04;;;;;;;7.28;6.45;;;;;;;28.45;56.34;99612.66;2795194;85;21523;-64
2021/07/05 10:48:05;;;;;;;28.10;8.13;;;;;;;28.22;56.07;99610.03;2780069;85;21052;-65
2021/07/05 10:52:12;;;;;;;14.38;10.40;;;;;;;28.00;59.27;99619.63;2788487;85;21067;-67
2021/07/05 10:56:42;;;;;;;12.75;9.85;;;;;;;27.85;58.16;99623.04;2782218;85;21075;-68
2021/07/05 11:00:45;;;;;;;12.33;7.97;;;;;;;27.60;59.76;99622.21;2782295;85;21226;-65
2021/07/05 11:04:51;;;;;;;10.75;7.87;;;;;;;27.54;61.24;99624.05;2781508;85;21057;-67
2021/07/05 11:08:53;;;;;;;16.12;9.83;;;;;;;27.50;61.36;99627.79;2781902;84;21016;-65
2021/07/05 11:13:05;;;;;;;13.15;9.65;;;;;;;27.39;62.29;99630.13;2786545;85;21063;-67
2021/07/05 11:17:21;;;;;;;9.85;7.22;;;;;;;27.28;63.76;99627.81;2786636;85;21039;-67
2021/07/05 11:21:36;;;;;;;8.40;7.60;;;;;;;27.12;64.53;99632.25;2786719;85;20982;-68
2021/07/05 11:25:37;;;;;;;17.80;7.83;;;;;;;26.96;64.87;99633.91;2783537;85;21003;-67
2021/07/05 11:29:47;;;;;;;8.63;6.33;;;;;;;26.89;65.25;99625.90;2794892;84;21045;-67
2021/07/05 11:33:49;;;;;;;9.45;7.05;;;;;;;26.99;66.32;99643.52;2781690;85;21389;-67
2021/07/05 11:37:57;;;;;;;14.35;8.98;;;;;;;27.17;64.56;99640.50;2811280;84;22290;-66
2021/07/05 11:41:59;;;;;;;9.93;6.08;;;;;;;27.28;63.81;99637.89;2780926;85;21067;-66
2021/07/05 11:46:00;;;;;;;9.60;6.15;;;;;;;27.20;64.75;99639.98;2760956;85;21016;-67
2021/07/05 11:50:27;;;;;;;8.43;6.75;;;;;;;27.30;66.45;99645.28;2761483;86;21016;-68
2021/07/05 11:54:34;;;;;;;7.40;6.20;;;;;;;27.78;65.84;99641.00;2778602;85;21070;-68
2021/07/05 11:58:39;;;;;;;8.13;6.53;;;;;;;28.04;62.75;99642.63;2788803;85;20992;-68
2021/07/05 12:02:41;;;;;;;14.58;8.48;;;;;;;27.88;61.01;99638.08;2773673;86;21087;-69
2021/07/05 12:06:49;;;;;;;7.62;6.17;;;;;;;27.49;61.70;99637.06;2777725;85;21035;-65
2021/07/05 12:10:56;;;;;;;7.90;5.67;;;;;;;27.14;63.03;99651.92;2814113;84;21009;-68
2021/07/05 12:15:03;;;;;;;12.07;6.95;;;;;;;26.78;63.02;99650.81;2763935;85;21066;-70
2021/07/05 12:19:06;;;;;;;6.85;6.20;;;;;;;26.51;64.95;99651.48;2781478;85;21051;-66
2021/07/05 12:23:14;;;;;;;7.87;6.30;;;;;;;26.34;65.14;99652.85;2783702;85;21032;-66
2021/07/05 12:27:19;;;;;;;6.55;5.37;;;;;;;26.45;66.16;99646.19;2779584;85;21062;-67
2021/07/05 12:31:28;;;;;;;7.90;6.08;;;;;;;26.48;66.05;99644.33;2803981;83;21048;-66
2021/07/05 12:35:30;;;;;;;6.78;5.72;;;;;;;26.23;66.44;99646.91;2850208;83;20999;-67
2021/07/05 12:39:56;;;;;;;17.90;8.38;;;;;;;25.99;67.85;99647.02;2850555;83;21102;-68
2021/07/05 12:44:17;;;;;;;6.72;5.25;;;;;;;25.78;67.87;99650.70;2814116;83;21110;-64
2021/07/05 12:48:31;;;;;;;8.40;5.58;;;;;;;25.67;68.12;99643.39;2836694;83;21054;-64
2021/07/05 12:52:30;;;;;;;7.22;5.60;;;;;;;25.53;68.44;99647.74;2848474;83;21054;-65
2021/07/05 12:56:32;;;;;;;5.83;5.08;;;;;;;25.37;67.97;99636.23;2818375;83;20972;-63
2021/07/05 13:00:38;;;;;;;7.55;6.65;;;;;;;25.29;69.08;99643.39;2847670;83;20992;-62
2021/07/05 13:04:41;;;;;;;7.08;5.80;;;;;;;25.23;69.80;99647.38;2817144;83;21072;-61
2021/07/05 13:08:43;;;;;;;17.37;7.47;;;;;;;25.25;70.39;99652.56;2849135;83;20981;-61
2021/07/05 13:12:58;;;;;;;8.73;4.65;;;;;;;25.33;71.52;99651.37;2849392;83;21008;-62
2021/07/05 13:17:08;;;;;;;9.53;6.17;;;;;;;25.24;73.46;99653.11;2849088;83;21022;-61
2021/07/05 13:21:11;;;;;;;9.85;6.97;;;;;;;25.16;75.01;99654.00;2850137;83;21050;-63
2021/07/05 13:25:13;;;;;;;7.08;6.30;;;;;;;25.30;76.72;99651.85;2846174;83;21036;-64
2021/07/05 13:29:35;;;;;;;6.08;5.47;;;;;;;25.67;77.12;99642.03;2835001;83;21032;-63
2021/07/05 13:33:37;;;;;;;7.20;6.15;;;;;;;26.18;72.72;99644.11;2791173;84;21033;-63
2021/07/05 13:37:47;;;;;;;7.90;6.20;;;;;;;26.34;70.77;99654.73;2835219;83;21012;-62
2021/07/05 13:41:49;;;;;;;7.80;6.80;;;;;;;26.73;69.19;99648.02;2830100;84;21541;-62
2021/07/05 13:45:56;;;;;;;8.85;6.62;;;;;;;26.86;67.02;99655.05;2835407;84;21028;-61
2021/07/05 13:50:20;;;;;;;12.93;8.08;;;;;;;26.77;67.08;99653.80;2835045;83;21086;-60
2021/07/05 13:54:29;;;;;;;9.30;6.05;;;;;;;26.68;66.14;99652.55;2775778;85;21015;-62
2021/07/05 13:58:37;;;;;;;7.97;6.90;;;;;;;26.53;66.86;99649.89;2835453;84;21003;-62
2021/07/05 14:02:40;;;;;;;6.80;5.85;;;;;;;26.55;67.38;99649.63;2788267;85;21052;-63
2021/07/05 14:06:47;;;;;;;8.83;6.70;;;;;;;26.41;67.17;99649.13;2835065;84;21210;-62
2021/07/05 14:10:56;;;;;;;8.58;6.33;;;;;;;26.15;67.33;99656.84;2834303;83;21539;-63
2021/07/05 14:15:05;;;;;;;8.90;6.55;;;;;;;26.03;68.99;99659.07;2834884;83;21067;-61
2021/07/05 14:19:10;;;;;;;5.60;5.03;;;;;;;26.01;70.40;99655.77;2834935;83;21044;-61
2021/07/05 14:23:16;;;;;;;8.00;6.03;;;;;;;25.95;69.33;99648.58;2834761;84;21573;-64
2021/07/05 14:27:22;;;;;;;6.22;5.72;;;;;;;25.80;68.82;99655.89;2828337;84;21069;-61
2021/07/05 14:31:27;;;;;;;5.58;5.08;;;;;;;25.72;68.95;99656.30;2834685;84;21033;-64
2021/07/05 14:35:28;;;;;;;4.72;4.05;;;;;;;25.65;69.44;99656.42;2843330;82;21009;-61
2021/07/05 14:39:36;;;;;;;5.42;4.92;;;;;;;25.60;70.17;99654.42;2861160;83;20987;-62
2021/07/05 14:43:39;;;;;;;4.87;4.30;;;;;;;25.58;70.15;99661.19;2813321;84;21048;-63
2021/07/05 14:47:43;;;;;;;6.58;5.15;;;;;;;25.59;71.05;99673.19;2813598;84;21042;-64
2021/07/05 14:51:47;;;;;;;11.73;5.65;;;;;;;25.59;71.76;99671.02;2813639;84;21636;-61
2021/07/05 14:55:55;;;;;;;18.52;6.50;;;;;;;25.49;70.53;99662.91;2796481;84;21020;-62
2021/07/05 14:59:57;;;;;;;5.67;5.10;;;;;;;25.43;70.92;99664.37;2791945;84;21028;-63
2021/07/05 15:04:02;;;;;;;49.15;11.15;;;;;;;25.44;71.10;99663.30;2862932;83;21024;-62
2021/07/05 15:08:07;;;;;;;6.97;6.17;;;;;;;25.42;71.77;99660.84;2844486;83;21016;-65
2021/07/05 15:12:13;;;;;;;7.10;6.37;;;;;;;25.45;71.74;99660.87;2862679;82;21635;-63
2021/07/05 15:16:16;;;;;;;9.38;7.25;;;;;;;25.57;73.46;99671.24;2862735;82;20987;-62
2021/07/05 15:20:25;;;;;;;8.18;6.53;;;;;;;25.84;73.25;99664.42;2863156;83;20968;-61
2021/07/05 15:24:27;;;;;;;8.30;7.17;;;;;;;26.34;71.95;99667.00;2798604;84;21017;-62
2021/07/05 15:28:28;;;;;;;6.42;5.85;;;;;;;26.71;69.38;99667.05;2812851;84;21053;-66
2021/07/05 15:32:30;;;;;;;9.05;6.33;;;;;;;27.21;68.66;99665.36;2803195;83;21029;-66
2021/07/05 15:36:36;;;;;;;5.92;5.00;;;;;;;27.64;66.92;99646.56;2829072;83;21093;-62
2021/07/05 15:40:37;;;;;;;5.37;4.40;;;;;;;27.90;64.41;99650.41;2848240;83;21548;-62
2021/07/05 15:44:41;;;;;;;6.35;5.58;;;;;;;28.04;64.03;99637.71;2863090;82;21075;-64
2021/07/05 15:48:43;;;;;;;6.30;4.72;;;;;;;28.13;61.38;99633.97;2862696;83;21024;-63
2021/07/05 15:52:45;;;;;;;4.08;3.60;;;;;;;28.16;62.65;99638.95;2862681;83;21068;-62
2021/07/05 15:56:47;;;;;;;5.00;4.50;;;;;;;28.24;61.53;99642.56;2862796;83;21026;-63
2021/07/05 16:00:50;;;;;;;4.95;4.45;;;;;;;28.28;59.90;99637.41;2802972;84;21013;-63
2021/07/05 16:04:51;;;;;;;3.65;3.33;;;;;;;28.22;59.41;99636.53;2812053;84;21028;-64
2021/07/05 16:08:53;;;;;;;4.67;4.28;;;;;;;28.16;60.04;99638.95;2808089;83;21052;-66
2021/07/05 16:12:55;;;;;;;5.58;3.72;;;;;;;28.16;60.03;99637.02;2861468;82;21106;-64
2021/07/05 16:16:56;;;;;;;4.80;3.60;;;;;;;28.18;58.85;99635.41;2797392;84;21053;-63
2021/07/05 16:21:00;;;;;;;2.80;2.60;;;;;;;28.16;57.89;99634.29;2809152;84;21012;-63
2021/07/05 16:25:02;;;;;;;4.42;4.03;;;;;;;28.15;59.18;99639.45;2860616;83;21544;-62
2021/07/05 16:29:04;;;;;;;4.12;3.83;;;;;;;28.08;58.45;99646.48;2862520;83;20984;-65
2021/07/05 16:33:08;;;;;;;3.42;3.10;;;;;;;28.02;58.43;99650.26;2848624;83;21084;-65
2021/07/05 16:37:10;;;;;;;4.30;3.10;;;;;;;27.98;59.04;99653.23;2832241;83;21022;-64
2021/07/05 16:41:13;;;;;;;3.15;2.90;;;;;;;27.89;57.84;99651.50;2816350;84;20989;-65
2021/07/05 16:45:15;;;;;;;4.75;4.25;;;;;;;27.84;57.79;99645.14;2772593;86;21020;-64
2021/07/05 16:49:20;;;;;;;3.37;3.08;;;;;;;27.72;58.49;99648.02;2731783;86;21037;-65
2021/07/05 16:53:21;;;;;;;3.85;3.50;;;;;;;27.62;59.10;99663.22;2727023;87;21101;-65
2021/07/05 16:57:24;;;;;;;4.70;3.65;;;;;;;27.56;59.14;99664.22;2818537;83;21043;-65
2021/07/05 17:01:26;;;;;;;4.70;3.33;;;;;;;27.56;60.66;99667.51;2794846;84;21016;-64
2021/07/05 17:05:30;;;;;;;6.60;3.80;;;;;;;27.57;60.91;99665.06;2773277;83;21028;-63
2021/07/05 17:09:32;;;;;;;5.03;4.63;;;;;;;27.46;60.66;99673.08;2831744;83;21039;-65
2021/07/05 17:13:38;;;;;;;4.72;4.30;;;;;;;27.38;60.76;99676.27;2827707;83;21072;-68
2021/07/05 17:17:40;;;;;;;4.50;4.10;;;;;;;27.21;60.84;99679.85;2832350;83;21025;-64
2021/07/05 17:21:44;;;;;;;4.35;4.00;;;;;;;27.03;61.39;99686.44;2825932;83;21012;-65
2021/07/05 17:25:47;;;;;;;23.73;7.53;;;;;;;26.86;63.81;99690.52;2809120;83;21117;-66
2021/07/05 17:29:50;;;;;;;5.08;4.67;;;;;;;26.76;64.32;99691.70;2776912;85;21004;-66
2021/07/05 17:33:55;;;;;;;5.53;4.97;;;;;;;26.74;65.42;99695.22;2812922;84;21060;-67
2021/07/05 17:37:57;;;;;;;5.62;5.00;;;;;;;26.68;65.98;99696.19;2846024;83;21054;-65
2021/07/05 17:42:00;;;;;;;5.30;4.80;;;;;;;26.59;66.28;99688.95;2815794;84;21077;-64
2021/07/05 17:46:02;;;;;;;5.78;4.87;;;;;;;26.45;66.90;99687.93;2841301;82;21023;-64
2021/07/05 17:50:10;;;;;;;4.45;4.05;;;;;;;26.29;67.29;99688.17;2813738;84;21058;-66
2021/07/05 17:54:11;;;;;;;5.75;5.25;;;;;;;26.17;68.08;99689.59;2813267;84;21781;-66
2021/07/05 17:58:13;;;;;;;18.82;8.60;;;;;;;26.11;68.85;99687.83;2854071;83;21042;-67
2021/07/05 18:02:15;;;;;;;6.62;6.03;;;;;;;25.95;68.94;99694.89;2801829;84;20987;-67
2021/07/05 18:06:19;;;;;;;40.58;11.83;;;;;;;25.78;69.40;99693.45;2861432;83;21005;-65
2021/07/05 18:10:22;;;;;;;22.70;8.85;;;;;;;25.66;69.75;99704.37;2862042;83;21004;-66
2021/07/05 18:14:24;;;;;;;13.35;6.35;;;;;;;25.59;69.87;99700.97;2861988;83;21064;-65
2021/07/05 18:18:26;;;;;;;10.60;6.65;;;;;;;25.50;69.94;99704.04;2862238;83;20993;-66
2021/07/05 18:22:28;;;;;;;54.50;13.62;;;;;;;25.34;70.53;99703.37;2862317;83;22339;-66
2021/07/05 18:26:31;;;;;;;22.50;6.67;;;;;;;25.21;70.40;99710.73;2861649;83;21583;-64
2021/07/05 18:30:34;;;;;;;16.42;4.85;;;;;;;25.12;69.76;99712.14;2861166;83;21042;-65
2021/07/05 18:34:37;;;;;;;5.15;4.50;;;;;;;24.97;70.30;99727.58;2817641;82;21083;-64
2021/07/05 18:38:40;;;;;;;5.40;4.67;;;;;;;24.73;69.55;99721.23;2822012;84;20992;-65
2021/07/05 18:42:42;;;;;;;4.40;4.00;;;;;;;24.47;70.40;99719.23;2822162;84;21020;-64
2021/07/05 18:46:44;;;;;;;4.30;3.17;;;;;;;24.25;70.51;99722.47;2821690;84;21512;-63
2021/07/05 18:50:46;;;;;;;3.65;2.67;;;;;;;24.00;70.73;99722.56;2819917;84;21146;-65
2021/07/05 18:54:48;;;;;;;6.70;2.37;;;;;;;23.78;71.17;99738.81;2813064;84;21038;-63
2021/07/05 18:58:50;;;;;;;4.53;2.27;;;;;;;23.61;71.61;99744.54;2821519;84;21015;-64
2021/07/05 19:02:52;;;;;;;3.30;2.25;;;;;;;23.56;71.74;99748.44;2822177;84;21063;-65